• Join FlightAware (Why Join?)
  • Login
  • US Flag 
03:27PM EST


 

Airport Tracker/Info


-or-


 

Live Flight TrackerFlight Track Log ✈ SKW4551 ✈ 07-May-2013 ✈ KRDM - KSLC

Flight Track Log - Related Links

Times and Time Zones

All times are in EDT time to prevent confusion due to time zone crossing. See the SKW4551 flight status page for this flight to view local times or setup timezone preferences in your user account.

Time Position Orientation Groundspeed Altitude Reporting Facility
EDT Latitude Longitude Course Direction KTS MPH feet Rate Location/Type
09:13AM 44.2658 -121.0797 113° Southeast 193 222 5,000  Level Seattle Center
09:14AM 44.2644 -120.9950 91° East 216 249 6,800 2,160 Climbing Seattle Center
09:15AM 44.2475 -120.8928 103° East 262 302 9,400 2,520 Climbing Seattle Center
09:16AM 44.1001 -120.6713 113° Southeast  Level Estimated
09:16AM 44.2272 -120.7892 105° East 274 315 11,900  Level Seattle Center
09:17AM 44.0671 -120.5361 109° East  Level FlightAware Approximate
09:17AM 44.2042 -120.6761 106° East 300 345 13,700  Level Seattle Center
09:18AM 44.0245 -120.4064 113° Southeast  Level Estimated
09:18AM 44.1789 -120.5503 106° East 331 381 15,200  Level Seattle Center
09:19AM 44.1514 -120.4183 106° East 351 404 16,800 1,500 Climbing Seattle Center
09:20AM 44.1275 -120.2997 106° East 363 418 18,300 1,440 Climbing Seattle Center
09:21AM 44.0992 -120.1608 106° East 374 430 19,800 1,380 Climbing Seattle Center
09:22AM 44.0692 -120.0197 106° East 384 442 21,100 1,200 Climbing Seattle Center
09:23AM 44.0394 -119.8772 106° East 386 444 22,300 1,260 Climbing Seattle Center
09:24AM 44.0028 -119.7019 106° East 397 457 23,700 1,260 Climbing Seattle Center
09:25AM 43.9722 -119.5575 106° East 394 453 24,900 1,080 Climbing Seattle Center
09:26AM 43.9411 -119.4122 107° East 396 456 25,900 960 Climbing Seattle Center
09:27AM 43.9094 -119.2650 107° East 400 460 26,900 840 Climbing Seattle Center
09:28AM 43.8769 -119.1164 107° East 407 468 27,700 840 Climbing Seattle Center
09:29AM 43.8453 -118.9703 107° East 401 461 28,700 1,020 Climbing Seattle Center
09:30AM 43.8125 -118.8239 107° East 401 461 29,900 960 Climbing Salt Lake Center
09:31AM 43.7803 -118.6803 107° East 394 453 30,800 780 Climbing Salt Lake Center
09:32AM 43.7478 -118.5378 107° East 392 451 31,600 720 Climbing Salt Lake Center
09:34AM 43.7164 -118.3950 107° East 389 448 32,300 660 Climbing Salt Lake Center
09:35AM 43.6744 -118.2183 108° East 396 456 33,000 300 Climbing Salt Lake Center
09:36AM 43.6411 -118.0792 108° East 400 460 33,000  Level Salt Lake Center
09:37AM 43.6094 -117.9369 107° East 406 467 33,000  Level Salt Lake Center
09:38AM 43.5686 -117.7653 108° East 420 483 33,000  Level Salt Lake Center
09:39AM 43.5361 -117.6203 107° East 416 479 33,000  Level Salt Lake Center
09:40AM 43.5014 -117.4742 108° East 419 482 33,000  Level Salt Lake Center
09:41AM 43.4617 -117.3028 108° East 420 483 33,000  Level Salt Lake Center
09:42AM 43.4261 -117.1569 109° East 420 483 33,000  Level Salt Lake Center
09:43AM 43.3858 -116.9864 108° East 421 484 33,000  Level Salt Lake Center
09:44AM 43.3500 -116.8406 109° East 422 486 33,000  Level Salt Lake Center
09:45AM 43.3136 -116.6936 109° East 425 489 33,000  Level Salt Lake Center
09:46AM 43.2722 -116.5219 108° East 426 490 33,000  Level Salt Lake Center
09:47AM 43.2358 -116.3744 109° East 427 491 33,000  Level Salt Lake Center
09:48AM 43.1931 -116.2033 109° East 427 491 33,000  Level Salt Lake Center
09:49AM 43.1569 -116.0575 109° East 424 488 33,000  Level Salt Lake Center
09:50AM 43.1203 -115.9114 109° East 424 488 33,000  Level Salt Lake Center
09:51AM 43.0772 -115.7411 109° East 426 490 33,000  Level Salt Lake Center
09:52AM 43.0397 -115.5969 110° East 422 486 33,000  Level Salt Lake Center
09:53AM 42.9969 -115.4275 109° East 423 487 33,000  Level Salt Lake Center
09:54AM 42.9600 -115.2850 109° East 417 480 33,000  Level Salt Lake Center
09:55AM 42.9164 -115.1175 110° East 419 482 33,000  Level Salt Lake Center
09:56AM 42.8794 -114.9758 110° East 416 479 33,000  Level Salt Lake Center
09:57AM 42.8419 -114.8353 110° East 414 476 33,000 -300 Level Salt Lake Center
09:58AM 42.7875 -114.6767 115° Southeast 416 479 32,500 -660 Descending Salt Lake Center
09:59AM 42.7283 -114.5344 119° Southeast 425 489 31,700 -780 Descending Salt Lake Center
10:00AM 42.6708 -114.3950 119° Southeast 425 489 31,000 -780 Descending Salt Lake Center
10:01AM 42.6125 -114.2550 119° Southeast 427 491 30,200 -840 Descending Salt Lake Center
10:02AM 42.5544 -114.1150 119° Southeast 428 493 29,400 -600 Descending Salt Lake Center
10:03AM 42.4956 -113.9736 119° Southeast 430 495 29,000 -240 Descending Salt Lake Center
10:04AM 42.4378 -113.8344 119° Southeast 424 488 29,000  Level Salt Lake Center
10:05AM 42.3797 -113.6950 119° Southeast 425 489 29,000  Level Salt Lake Center
10:07AM 42.3133 -113.5375 120° Southeast  Level FlightAware Approximate
10:07AM 42.2361 -113.4067 120° Southeast 425 489 29,000  Level Salt Lake Center
10:08AM 42.1514 -113.2947 136° Southeast 428 493 29,000  Level Salt Lake Center
10:09AM 42.0658 -113.1842 136° Southeast 428 493 29,000  Level Salt Lake Center
10:10AM 41.9819 -113.0708 135° Southeast 428 493 29,000 -1,080 Level Salt Lake Center
10:11AM 41.8961 -112.9611 136° Southeast 429 494 26,800 -2,580 Descending Salt Lake Center
10:12AM 41.8114 -112.8506 136° Southeast 426 490 23,800 -3,300 Descending Salt Lake Center
10:13AM 41.7114 -112.7192 136° Southeast 420 483 20,100 -3,240 Descending Salt Lake Center
10:14AM 41.6475 -112.6275 133° Southeast 411 473 17,700 -2,340 Descending Salt Lake Center
10:15AM 41.5653 -112.5233 137° Southeast 377 434 15,700 -1,320 Descending Salt Lake Center
10:17AM 41.4881 -112.4508 145° Southeast 297 342 14,900 -960 Descending Salt Lake Center
10:18AM 41.4281 -112.3775 137° Southeast 295 339 13,700 -1,320 Descending Salt Lake Center
10:18AM 41.3758 -112.3069 135° Southeast 298 343 12,500 -1,320 Descending Salt Lake Center
10:19AM 41.3175 -112.2381 138° Southeast 281 323 11,400 -960 Descending Salt Lake Center
10:20AM 41.3097 -112.2353 165° South 276 318 11,300 -1,020 Descending Salt Lake Center
10:20AM 41.2653 -112.1789 136° Southeast 251 289 10,400 -1,200 Descending Salt Lake Center
10:21AM 41.2494 -112.1631 143° Southeast 245 282 10,100 -420 Descending Salt Lake Center
10:21AM 41.2175 -112.1211 135° Southeast 237 273 10,000 -120 Descending Salt Lake Center
10:22AM 41.2022 -112.1069 145° Southeast 230 265 10,000  Level Salt Lake Center
10:22AM 41.1681 -112.0667 138° Southeast 217 250 10,000  Level Salt Lake Center
10:23AM 41.1569 -112.0542 140° Southeast 219 252 10,000 -540 Level Salt Lake Center
10:23AM 41.1142 -112.0336 160° South 217 250 9,500 -720 Descending Salt Lake Center
10:24AM 41.1011 -112.0314 173° South 221 254 9,300 -540 Descending Salt Lake Center
10:24AM 41.0550 -112.0281 177° South 213 245 9,000 -300 Descending Salt Lake Center
10:25AM 41.0447 -112.0269 175° South 207 238 9,000 -540 Level Salt Lake Center
10:25AM 41.0044 -112.0228 176° South 183 211 8,500 -720 Descending Salt Lake Center
10:26AM 40.9961 -112.0214 173° South 178 205 8,300 -900 Descending Salt Lake Center
10:27AM 40.9558 -112.0164 175° South 167 192 7,500 -1,200 Descending Salt Lake Center
10:27AM 40.9419 -112.0156 177° South 164 189 7,100 -1,200 Descending Salt Lake Center
10:27AM 40.9144 -112.0136 177° South 158 182 6,400 -1,080 Descending Salt Lake Center